sensor_id;sensor_type;location;lat;lon;timestamp;P1;durP1;ratioP1;P2;durP2;ratioP2
10277;SDS011;5184;51.376;7.148;2023-02-14T00:01:35;6.67;;;5.13;;
10277;SDS011;5184;51.376;7.148;2023-02-14T00:04:02;7.47;;;4.73;;
10277;SDS011;5184;51.376;7.148;2023-02-14T00:06:30;6.63;;;4.83;;
10277;SDS011;5184;51.376;7.148;2023-02-14T00:08:55;5.73;;;4.70;;
10277;SDS011;5184;51.376;7.148;2023-02-14T00:11:22;7.77;;;5.33;;
10277;SDS011;5184;51.376;7.148;2023-02-14T00:13:49;6.00;;;5.07;;
10277;SDS011;5184;51.376;7.148;2023-02-14T00:16:22;7.90;;;5.80;;
10277;SDS011;5184;51.376;7.148;2023-02-14T00:18:49;7.70;;;5.30;;
10277;SDS011;5184;51.376;7.148;2023-02-14T00:21:21;7.90;;;6.07;;
10277;SDS011;5184;51.376;7.148;2023-02-14T00:23:48;7.43;;;5.50;;
10277;SDS011;5184;51.376;7.148;2023-02-14T00:26:14;7.13;;;5.60;;
10277;SDS011;5184;51.376;7.148;2023-02-14T00:28:41;8.80;;;6.37;;
10277;SDS011;5184;51.376;7.148;2023-02-14T00:31:08;8.23;;;6.33;;
10277;SDS011;5184;51.376;7.148;2023-02-14T00:33:34;7.97;;;6.10;;
10277;SDS011;5184;51.376;7.148;2023-02-14T00:36:02;8.60;;;5.93;;
10277;SDS011;5184;51.376;7.148;2023-02-14T00:38:27;7.70;;;5.83;;
10277;SDS011;5184;51.376;7.148;2023-02-14T00:40:54;9.60;;;6.60;;
10277;SDS011;5184;51.376;7.148;2023-02-14T00:43:20;9.83;;;6.60;;
10277;SDS011;5184;51.376;7.148;2023-02-14T00:45:47;10.83;;;7.30;;
10277;SDS011;5184;51.376;7.148;2023-02-14T00:48:14;10.07;;;6.40;;
10277;SDS011;5184;51.376;7.148;2023-02-14T00:50:42;8.63;;;6.63;;
10277;SDS011;5184;51.376;7.148;2023-02-14T00:53:09;8.93;;;6.33;;
10277;SDS011;5184;51.376;7.148;2023-02-14T00:55:36;9.70;;;6.83;;
10277;SDS011;5184;51.376;7.148;2023-02-14T00:58:02;10.10;;;6.37;;
10277;SDS011;5184;51.376;7.148;2023-02-14T01:00:29;8.50;;;6.70;;
10277;SDS011;5184;51.376;7.148;2023-02-14T01:02:56;9.23;;;6.90;;
10277;SDS011;5184;51.376;7.148;2023-02-14T01:05:24;12.73;;;7.87;;
10277;SDS011;5184;51.376;7.148;2023-02-14T01:07:51;10.57;;;7.27;;
10277;SDS011;5184;51.376;7.148;2023-02-14T01:10:17;10.40;;;6.83;;
10277;SDS011;5184;51.376;7.148;2023-02-14T01:12:44;9.63;;;7.00;;
10277;SDS011;5184;51.376;7.148;2023-02-14T01:15:12;8.70;;;6.60;;
10277;SDS011;5184;51.376;7.148;2023-02-14T01:17:38;11.87;;;7.40;;
10277;SDS011;5184;51.376;7.148;2023-02-14T01:20:06;9.17;;;6.47;;
10277;SDS011;5184;51.376;7.148;2023-02-14T01:22:35;9.67;;;6.43;;
10277;SDS011;5184;51.376;7.148;2023-02-14T01:25:01;9.40;;;6.57;;
10277;SDS011;5184;51.376;7.148;2023-02-14T01:27:28;8.67;;;6.77;;
10277;SDS011;5184;51.376;7.148;2023-02-14T01:29:55;8.20;;;6.90;;
10277;SDS011;5184;51.376;7.148;2023-02-14T01:32:23;10.23;;;7.00;;
10277;SDS011;5184;51.376;7.148;2023-02-14T01:34:50;9.27;;;6.87;;
10277;SDS011;5184;51.376;7.148;2023-02-14T01:37:17;8.67;;;6.50;;
10277;SDS011;5184;51.376;7.148;2023-02-14T01:39:44;8.50;;;6.90;;
10277;SDS011;5184;51.376;7.148;2023-02-14T01:42:11;9.20;;;6.37;;
10277;SDS011;5184;51.376;7.148;2023-02-14T01:44:54;8.60;;;6.47;;
10277;SDS011;5184;51.376;7.148;2023-02-14T01:47:20;9.10;;;6.50;;
10277;SDS011;5184;51.376;7.148;2023-02-14T01:49:48;8.70;;;6.87;;
10277;SDS011;5184;51.376;7.148;2023-02-14T01:52:14;8.37;;;6.27;;
10277;SDS011;5184;51.376;7.148;2023-02-14T01:54:40;7.97;;;6.40;;
10277;SDS011;5184;51.376;7.148;2023-02-14T01:57:07;7.30;;;5.60;;
10277;SDS011;5184;51.376;7.148;2023-02-14T01:59:35;8.70;;;5.93;;
10277;SDS011;5184;51.376;7.148;2023-02-14T02:02:01;8.13;;;6.07;;
10277;SDS011;5184;51.376;7.148;2023-02-14T02:04:33;8.37;;;5.70;;
10277;SDS011;5184;51.376;7.148;2023-02-14T02:06:55;7.77;;;5.77;;
10277;SDS011;5184;51.376;7.148;2023-02-14T02:09:23;7.73;;;5.47;;
10277;SDS011;5184;51.376;7.148;2023-02-14T02:11:47;7.67;;;5.87;;
10277;SDS011;5184;51.376;7.148;2023-02-14T02:14:16;8.63;;;5.87;;
10277;SDS011;5184;51.376;7.148;2023-02-14T02:17:17;8.23;;;5.77;;
10277;SDS011;5184;51.376;7.148;2023-02-14T02:19:36;8.40;;;5.80;;
10277;SDS011;5184;51.376;7.148;2023-02-14T02:22:03;8.53;;;6.20;;
10277;SDS011;5184;51.376;7.148;2023-02-14T02:24:30;9.20;;;6.10;;
10277;SDS011;5184;51.376;7.148;2023-02-14T02:27:01;8.50;;;6.30;;
10277;SDS011;5184;51.376;7.148;2023-02-14T02:32:22;7.67;;;6.30;;
10277;SDS011;5184;51.376;7.148;2023-02-14T02:35:10;9.90;;;6.20;;
10277;SDS011;5184;51.376;7.148;2023-02-14T02:37:58;8.00;;;6.53;;
10277;SDS011;5184;51.376;7.148;2023-02-14T02:43:04;7.63;;;5.90;;
10277;SDS011;5184;51.376;7.148;2023-02-14T02:45:30;9.93;;;6.30;;
10277;SDS011;5184;51.376;7.148;2023-02-14T02:47:56;9.10;;;6.97;;
10277;SDS011;5184;51.376;7.148;2023-02-14T02:50:28;9.57;;;7.07;;
10277;SDS011;5184;51.376;7.148;2023-02-14T02:53:20;8.03;;;6.27;;
10277;SDS011;5184;51.376;7.148;2023-02-14T02:55:52;8.17;;;7.03;;
10277;SDS011;5184;51.376;7.148;2023-02-14T02:58:30;8.43;;;6.70;;
10277;SDS011;5184;51.376;7.148;2023-02-14T03:00:56;11.87;;;8.00;;
10277;SDS011;5184;51.376;7.148;2023-02-14T03:03:23;10.30;;;7.03;;
10277;SDS011;5184;51.376;7.148;2023-02-14T03:05:55;9.70;;;7.27;;
10277;SDS011;5184;51.376;7.148;2023-02-14T03:08:21;12.03;;;7.50;;
10277;SDS011;5184;51.376;7.148;2023-02-14T03:10:48;10.97;;;7.10;;
10277;SDS011;5184;51.376;7.148;2023-02-14T03:13:18;8.13;;;6.63;;
10277;SDS011;5184;51.376;7.148;2023-02-14T03:15:49;8.57;;;7.23;;
10277;SDS011;5184;51.376;7.148;2023-02-14T03:21:09;7.43;;;6.50;;
10277;SDS011;5184;51.376;7.148;2023-02-14T03:23:38;9.60;;;7.27;;
10277;SDS011;5184;51.376;7.148;2023-02-14T03:26:21;9.60;;;6.53;;
10277;SDS011;5184;51.376;7.148;2023-02-14T03:31:29;9.07;;;6.83;;
10277;SDS011;5184;51.376;7.148;2023-02-14T03:33:59;9.90;;;7.03;;
10277;SDS011;5184;51.376;7.148;2023-02-14T03:36:31;11.47;;;8.00;;
10277;SDS011;5184;51.376;7.148;2023-02-14T03:39:01;12.10;;;8.10;;
10277;SDS011;5184;51.376;7.148;2023-02-14T03:41:30;10.73;;;7.47;;
10277;SDS011;5184;51.376;7.148;2023-02-14T03:43:58;10.53;;;7.73;;
10277;SDS011;5184;51.376;7.148;2023-02-14T03:46:27;9.97;;;7.63;;
10277;SDS011;5184;51.376;7.148;2023-02-14T03:48:54;9.47;;;7.60;;
10277;SDS011;5184;51.376;7.148;2023-02-14T03:51:21;12.20;;;8.27;;
10277;SDS011;5184;51.376;7.148;2023-02-14T03:53:48;11.57;;;8.30;;
10277;SDS011;5184;51.376;7.148;2023-02-14T03:56:17;12.07;;;8.03;;
10277;SDS011;5184;51.376;7.148;2023-02-14T03:58:45;11.13;;;8.37;;
10277;SDS011;5184;51.376;7.148;2023-02-14T04:01:15;12.20;;;8.90;;
10277;SDS011;5184;51.376;7.148;2023-02-14T04:03:42;12.30;;;9.00;;
10277;SDS011;5184;51.376;7.148;2023-02-14T04:06:10;15.63;;;9.40;;
10277;SDS011;5184;51.376;7.148;2023-02-14T04:08:36;14.20;;;9.57;;
10277;SDS011;5184;51.376;7.148;2023-02-14T04:11:03;16.27;;;10.27;;
10277;SDS011;5184;51.376;7.148;2023-02-14T04:13:30;15.50;;;10.30;;
10277;SDS011;5184;51.376;7.148;2023-02-14T04:15:56;17.17;;;11.00;;
10277;SDS011;5184;51.376;7.148;2023-02-14T04:18:23;21.40;;;12.07;;
10277;SDS011;5184;51.376;7.148;2023-02-14T04:20:56;17.67;;;11.70;;
10277;SDS011;5184;51.376;7.148;2023-02-14T04:23:23;24.23;;;15.30;;
10277;SDS011;5184;51.376;7.148;2023-02-14T04:25:50;27.73;;;15.70;;
10277;SDS011;5184;51.376;7.148;2023-02-14T04:28:17;24.07;;;14.03;;
10277;SDS011;5184;51.376;7.148;2023-02-14T04:30:44;23.80;;;15.27;;
10277;SDS011;5184;51.376;7.148;2023-02-14T04:33:11;24.33;;;15.47;;
10277;SDS011;5184;51.376;7.148;2023-02-14T04:35:39;22.80;;;15.67;;
10277;SDS011;5184;51.376;7.148;2023-02-14T04:38:05;20.70;;;14.00;;
10277;SDS011;5184;51.376;7.148;2023-02-14T04:40:32;21.27;;;12.90;;
10277;SDS011;5184;51.376;7.148;2023-02-14T04:42:59;18.70;;;10.83;;
10277;SDS011;5184;51.376;7.148;2023-02-14T04:45:25;15.13;;;10.97;;
10277;SDS011;5184;51.376;7.148;2023-02-14T04:47:52;14.57;;;10.37;;
10277;SDS011;5184;51.376;7.148;2023-02-14T04:50:19;19.80;;;12.63;;
10277;SDS011;5184;51.376;7.148;2023-02-14T04:52:47;14.57;;;10.13;;
10277;SDS011;5184;51.376;7.148;2023-02-14T04:55:14;15.40;;;10.87;;
10277;SDS011;5184;51.376;7.148;2023-02-14T04:57:41;13.13;;;9.80;;
10277;SDS011;5184;51.376;7.148;2023-02-14T05:00:08;15.60;;;11.13;;
10277;SDS011;5184;51.376;7.148;2023-02-14T05:02:35;17.20;;;10.63;;
10277;SDS011;5184;51.376;7.148;2023-02-14T05:05:02;20.10;;;13.73;;
10277;SDS011;5184;51.376;7.148;2023-02-14T05:07:29;16.20;;;12.10;;
10277;SDS011;5184;51.376;7.148;2023-02-14T05:09:57;18.57;;;12.27;;
10277;SDS011;5184;51.376;7.148;2023-02-14T05:12:24;21.70;;;13.37;;
10277;SDS011;5184;51.376;7.148;2023-02-14T05:14:51;17.90;;;12.10;;
10277;SDS011;5184;51.376;7.148;2023-02-14T05:17:19;17.03;;;12.10;;
10277;SDS011;5184;51.376;7.148;2023-02-14T05:19:45;20.07;;;12.37;;
10277;SDS011;5184;51.376;7.148;2023-02-14T05:22:12;21.73;;;14.03;;
10277;SDS011;5184;51.376;7.148;2023-02-14T05:24:38;20.47;;;13.30;;
10277;SDS011;5184;51.376;7.148;2023-02-14T05:27:05;20.90;;;13.63;;
10277;SDS011;5184;51.376;7.148;2023-02-14T05:29:32;19.03;;;12.83;;
10277;SDS011;5184;51.376;7.148;2023-02-14T05:31:58;21.10;;;13.77;;
10277;SDS011;5184;51.376;7.148;2023-02-14T05:34:25;19.10;;;12.77;;
10277;SDS011;5184;51.376;7.148;2023-02-14T05:36:51;22.33;;;13.80;;
10277;SDS011;5184;51.376;7.148;2023-02-14T05:39:18;21.33;;;13.70;;
10277;SDS011;5184;51.376;7.148;2023-02-14T05:41:45;19.97;;;13.97;;
10277;SDS011;5184;51.376;7.148;2023-02-14T05:44:12;22.00;;;14.00;;
10277;SDS011;5184;51.376;7.148;2023-02-14T05:46:39;25.63;;;16.43;;
10277;SDS011;5184;51.376;7.148;2023-02-14T05:49:06;26.73;;;16.13;;
10277;SDS011;5184;51.376;7.148;2023-02-14T05:51:32;32.50;;;17.97;;
10277;SDS011;5184;51.376;7.148;2023-02-14T05:53:59;24.43;;;16.53;;
10277;SDS011;5184;51.376;7.148;2023-02-14T05:56:26;21.90;;;13.90;;
10277;SDS011;5184;51.376;7.148;2023-02-14T05:58:53;20.70;;;13.53;;
10277;SDS011;5184;51.376;7.148;2023-02-14T06:01:20;20.60;;;13.17;;
10277;SDS011;5184;51.376;7.148;2023-02-14T06:03:46;20.43;;;13.03;;
10277;SDS011;5184;51.376;7.148;2023-02-14T06:06:13;20.33;;;12.70;;
10277;SDS011;5184;51.376;7.148;2023-02-14T06:08:39;21.70;;;13.60;;
10277;SDS011;5184;51.376;7.148;2023-02-14T06:11:06;22.17;;;12.70;;
10277;SDS011;5184;51.376;7.148;2023-02-14T06:13:33;20.77;;;13.43;;
10277;SDS011;5184;51.376;7.148;2023-02-14T06:16:01;21.60;;;13.50;;
10277;SDS011;5184;51.376;7.148;2023-02-14T06:18:28;19.23;;;12.80;;
10277;SDS011;5184;51.376;7.148;2023-02-14T06:20:55;21.10;;;13.63;;
10277;SDS011;5184;51.376;7.148;2023-02-14T06:23:21;20.83;;;13.87;;
10277;SDS011;5184;51.376;7.148;2023-02-14T06:25:48;26.50;;;16.33;;
10277;SDS011;5184;51.376;7.148;2023-02-14T06:28:14;26.37;;;16.67;;
10277;SDS011;5184;51.376;7.148;2023-02-14T06:30:41;27.67;;;16.53;;
10277;SDS011;5184;51.376;7.148;2023-02-14T06:33:08;25.97;;;15.43;;
10277;SDS011;5184;51.376;7.148;2023-02-14T06:35:36;22.97;;;14.53;;
10277;SDS011;5184;51.376;7.148;2023-02-14T06:38:03;24.77;;;15.40;;
10277;SDS011;5184;51.376;7.148;2023-02-14T06:40:29;34.03;;;19.20;;
10277;SDS011;5184;51.376;7.148;2023-02-14T06:42:56;35.40;;;20.53;;
10277;SDS011;5184;51.376;7.148;2023-02-14T06:45:22;32.87;;;20.40;;
10277;SDS011;5184;51.376;7.148;2023-02-14T06:47:49;31.13;;;18.80;;
10277;SDS011;5184;51.376;7.148;2023-02-14T06:50:16;27.13;;;16.73;;
10277;SDS011;5184;51.376;7.148;2023-02-14T06:52:43;25.23;;;16.20;;
10277;SDS011;5184;51.376;7.148;2023-02-14T06:55:10;32.13;;;18.83;;
10277;SDS011;5184;51.376;7.148;2023-02-14T06:57:36;33.60;;;20.53;;
10277;SDS011;5184;51.376;7.148;2023-02-14T07:00:03;34.77;;;20.00;;
10277;SDS011;5184;51.376;7.148;2023-02-14T07:02:30;29.37;;;19.77;;
10277;SDS011;5184;51.376;7.148;2023-02-14T07:04:58;33.27;;;19.73;;
10277;SDS011;5184;51.376;7.148;2023-02-14T07:07:25;30.93;;;19.57;;
10277;SDS011;5184;51.376;7.148;2023-02-14T07:09:52;32.77;;;21.03;;
10277;SDS011;5184;51.376;7.148;2023-02-14T07:12:19;31.60;;;18.87;;
10277;SDS011;5184;51.376;7.148;2023-02-14T07:14:46;39.00;;;21.70;;
10277;SDS011;5184;51.376;7.148;2023-02-14T07:17:13;42.13;;;23.20;;
10277;SDS011;5184;51.376;7.148;2023-02-14T07:19:41;36.23;;;20.50;;
10277;SDS011;5184;51.376;7.148;2023-02-14T07:22:08;37.60;;;22.80;;
10277;SDS011;5184;51.376;7.148;2023-02-14T07:24:35;36.03;;;22.27;;
10277;SDS011;5184;51.376;7.148;2023-02-14T07:27:01;41.97;;;22.50;;
10277;SDS011;5184;51.376;7.148;2023-02-14T07:29:28;37.40;;;21.60;;
10277;SDS011;5184;51.376;7.148;2023-02-14T07:31:55;37.60;;;20.83;;
10277;SDS011;5184;51.376;7.148;2023-02-14T07:34:22;31.60;;;19.57;;
10277;SDS011;5184;51.376;7.148;2023-02-14T07:36:49;30.40;;;18.27;;
10277;SDS011;5184;51.376;7.148;2023-02-14T07:39:16;27.23;;;17.37;;
10277;SDS011;5184;51.376;7.148;2023-02-14T07:41:43;27.97;;;18.10;;
10277;SDS011;5184;51.376;7.148;2023-02-14T07:44:10;25.67;;;17.63;;
10277;SDS011;5184;51.376;7.148;2023-02-14T07:46:38;29.90;;;17.23;;
10277;SDS011;5184;51.376;7.148;2023-02-14T07:49:05;25.60;;;16.77;;
10277;SDS011;5184;51.376;7.148;2023-02-14T07:51:33;26.00;;;16.03;;
10277;SDS011;5184;51.376;7.148;2023-02-14T07:53:59;25.77;;;16.87;;
10277;SDS011;5184;51.376;7.148;2023-02-14T07:56:26;27.37;;;16.30;;
10277;SDS011;5184;51.376;7.148;2023-02-14T07:58:52;24.67;;;16.10;;
10277;SDS011;5184;51.376;7.148;2023-02-14T08:01:19;23.37;;;14.83;;
10277;SDS011;5184;51.376;7.148;2023-02-14T08:03:46;23.47;;;14.93;;
10277;SDS011;5184;51.376;7.148;2023-02-14T08:06:16;22.70;;;14.57;;
10277;SDS011;5184;51.376;7.148;2023-02-14T08:08:43;20.67;;;14.23;;
10277;SDS011;5184;51.376;7.148;2023-02-14T08:11:10;21.20;;;14.17;;
10277;SDS011;5184;51.376;7.148;2023-02-14T08:13:37;22.37;;;13.53;;
10277;SDS011;5184;51.376;7.148;2023-02-14T08:16:04;21.93;;;13.43;;
10277;SDS011;5184;51.376;7.148;2023-02-14T08:18:34;22.37;;;13.63;;
10277;SDS011;5184;51.376;7.148;2023-02-14T08:21:00;22.23;;;13.37;;
10277;SDS011;5184;51.376;7.148;2023-02-14T08:23:27;20.37;;;12.73;;
10277;SDS011;5184;51.376;7.148;2023-02-14T08:25:54;19.53;;;12.90;;
10277;SDS011;5184;51.376;7.148;2023-02-14T08:28:22;19.43;;;13.13;;
10277;SDS011;5184;51.376;7.148;2023-02-14T08:30:48;22.07;;;13.43;;
10277;SDS011;5184;51.376;7.148;2023-02-14T08:33:15;17.87;;;12.40;;
10277;SDS011;5184;51.376;7.148;2023-02-14T08:35:42;17.13;;;12.20;;
10277;SDS011;5184;51.376;7.148;2023-02-14T08:38:09;16.67;;;11.80;;
10277;SDS011;5184;51.376;7.148;2023-02-14T08:40:35;18.87;;;12.10;;
10277;SDS011;5184;51.376;7.148;2023-02-14T08:43:03;16.67;;;12.13;;
10277;SDS011;5184;51.376;7.148;2023-02-14T08:45:29;17.57;;;11.37;;
10277;SDS011;5184;51.376;7.148;2023-02-14T08:48:00;20.33;;;13.07;;
10277;SDS011;5184;51.376;7.148;2023-02-14T08:50:26;16.87;;;11.50;;
10277;SDS011;5184;51.376;7.148;2023-02-14T08:52:53;16.87;;;11.47;;
10277;SDS011;5184;51.376;7.148;2023-02-14T08:55:21;18.27;;;11.93;;
10277;SDS011;5184;51.376;7.148;2023-02-14T08:57:48;15.40;;;11.10;;
10277;SDS011;5184;51.376;7.148;2023-02-14T09:00:15;17.70;;;12.33;;
10277;SDS011;5184;51.376;7.148;2023-02-14T09:02:43;19.63;;;12.67;;
10277;SDS011;5184;51.376;7.148;2023-02-14T09:05:10;17.73;;;12.77;;
10277;SDS011;5184;51.376;7.148;2023-02-14T09:07:37;16.87;;;12.37;;
10277;SDS011;5184;51.376;7.148;2023-02-14T09:10:04;17.33;;;11.97;;
10277;SDS011;5184;51.376;7.148;2023-02-14T09:12:32;19.80;;;12.83;;
10277;SDS011;5184;51.376;7.148;2023-02-14T09:15:00;16.87;;;11.37;;
10277;SDS011;5184;51.376;7.148;2023-02-14T09:17:26;18.03;;;11.87;;
10277;SDS011;5184;51.376;7.148;2023-02-14T09:19:53;16.13;;;11.13;;
10277;SDS011;5184;51.376;7.148;2023-02-14T09:22:19;15.27;;;11.77;;
10277;SDS011;5184;51.376;7.148;2023-02-14T09:24:46;18.20;;;12.13;;
10277;SDS011;5184;51.376;7.148;2023-02-14T09:27:13;16.03;;;11.27;;
10277;SDS011;5184;51.376;7.148;2023-02-14T09:29:39;15.67;;;12.00;;
10277;SDS011;5184;51.376;7.148;2023-02-14T09:32:06;18.03;;;11.60;;
10277;SDS011;5184;51.376;7.148;2023-02-14T09:34:33;13.80;;;10.30;;
10277;SDS011;5184;51.376;7.148;2023-02-14T09:36:59;14.37;;;10.20;;
10277;SDS011;5184;51.376;7.148;2023-02-14T09:39:27;15.57;;;11.03;;
10277;SDS011;5184;51.376;7.148;2023-02-14T09:41:57;15.90;;;11.03;;
10277;SDS011;5184;51.376;7.148;2023-02-14T09:44:56;14.90;;;10.20;;
10277;SDS011;5184;51.376;7.148;2023-02-14T09:47:56;14.63;;;10.37;;
10277;SDS011;5184;51.376;7.148;2023-02-14T09:52:51;15.57;;;11.27;;
10277;SDS011;5184;51.376;7.148;2023-02-14T09:55:17;17.03;;;11.37;;
10277;SDS011;5184;51.376;7.148;2023-02-14T10:03:27;14.30;;;10.97;;
10277;SDS011;5184;51.376;7.148;2023-02-14T10:06:03;14.07;;;10.43;;
10277;SDS011;5184;51.376;7.148;2023-02-14T10:08:41;14.30;;;10.70;;
10277;SDS011;5184;51.376;7.148;2023-02-14T10:11:13;13.43;;;11.07;;
10277;SDS011;5184;51.376;7.148;2023-02-14T10:13:46;15.23;;;10.20;;
10277;SDS011;5184;51.376;7.148;2023-02-14T10:16:34;13.27;;;10.30;;
10277;SDS011;5184;51.376;7.148;2023-02-14T10:19:01;12.43;;;9.33;;
10277;SDS011;5184;51.376;7.148;2023-02-14T10:21:32;13.20;;;9.97;;
10277;SDS011;5184;51.376;7.148;2023-02-14T10:24:01;13.67;;;9.67;;
10277;SDS011;5184;51.376;7.148;2023-02-14T10:26:29;14.17;;;10.17;;
10277;SDS011;5184;51.376;7.148;2023-02-14T10:28:53;12.33;;;9.67;;
10277;SDS011;5184;51.376;7.148;2023-02-14T10:31:24;12.80;;;9.50;;
10277;SDS011;5184;51.376;7.148;2023-02-14T10:34:24;11.80;;;9.60;;
10277;SDS011;5184;51.376;7.148;2023-02-14T10:36:55;12.40;;;9.77;;
10277;SDS011;5184;51.376;7.148;2023-02-14T10:39:25;11.17;;;9.17;;
10277;SDS011;5184;51.376;7.148;2023-02-14T10:43:14;14.17;;;9.20;;
10277;SDS011;5184;51.376;7.148;2023-02-14T10:48:00;14.13;;;8.90;;
10277;SDS011;5184;51.376;7.148;2023-02-14T10:53:01;11.83;;;8.30;;
10277;SDS011;5184;51.376;7.148;2023-02-14T10:55:40;13.10;;;8.80;;
10277;SDS011;5184;51.376;7.148;2023-02-14T10:58:18;11.10;;;8.67;;
10277;SDS011;5184;51.376;7.148;2023-02-14T11:00:51;10.23;;;8.70;;
10277;SDS011;5184;51.376;7.148;2023-02-14T11:03:19;13.33;;;9.53;;
10277;SDS011;5184;51.376;7.148;2023-02-14T11:05:47;11.73;;;9.27;;
10277;SDS011;5184;51.376;7.148;2023-02-14T11:08:18;10.93;;;8.47;;
10277;SDS011;5184;51.376;7.148;2023-02-14T11:10:48;11.40;;;8.67;;
10277;SDS011;5184;51.376;7.148;2023-02-14T11:15:51;11.83;;;8.77;;
10277;SDS011;5184;51.376;7.148;2023-02-14T11:18:20;11.60;;;9.17;;
10277;SDS011;5184;51.376;7.148;2023-02-14T11:20:50;11.73;;;8.70;;
10277;SDS011;5184;51.376;7.148;2023-02-14T11:23:19;11.33;;;8.70;;
10277;SDS011;5184;51.376;7.148;2023-02-14T11:25:49;9.97;;;8.13;;
10277;SDS011;5184;51.376;7.148;2023-02-14T11:28:15;13.10;;;8.93;;
10277;SDS011;5184;51.376;7.148;2023-02-14T11:30:42;10.67;;;8.10;;
10277;SDS011;5184;51.376;7.148;2023-02-14T11:33:10;11.43;;;8.37;;
10277;SDS011;5184;51.376;7.148;2023-02-14T11:35:36;11.50;;;8.20;;
10277;SDS011;5184;51.376;7.148;2023-02-14T11:38:05;10.47;;;8.20;;
10277;SDS011;5184;51.376;7.148;2023-02-14T11:40:33;10.93;;;8.27;;
10277;SDS011;5184;51.376;7.148;2023-02-14T11:43:00;12.00;;;8.97;;
10277;SDS011;5184;51.376;7.148;2023-02-14T11:45:30;11.23;;;7.80;;
10277;SDS011;5184;51.376;7.148;2023-02-14T11:48:05;10.60;;;7.90;;
10277;SDS011;5184;51.376;7.148;2023-02-14T11:50:36;11.63;;;8.53;;
10277;SDS011;5184;51.376;7.148;2023-02-14T11:53:03;9.37;;;7.73;;
10277;SDS011;5184;51.376;7.148;2023-02-14T11:55:31;11.07;;;9.03;;
10277;SDS011;5184;51.376;7.148;2023-02-14T11:57:57;11.53;;;8.67;;
10277;SDS011;5184;51.376;7.148;2023-02-14T12:00:24;9.30;;;7.97;;
10277;SDS011;5184;51.376;7.148;2023-02-14T12:02:51;10.13;;;8.03;;
10277;SDS011;5184;51.376;7.148;2023-02-14T12:05:19;10.57;;;7.70;;
10277;SDS011;5184;51.376;7.148;2023-02-14T12:07:47;11.67;;;8.50;;
10277;SDS011;5184;51.376;7.148;2023-02-14T12:10:17;11.60;;;8.67;;
10277;SDS011;5184;51.376;7.148;2023-02-14T12:12:55;11.93;;;9.07;;
10277;SDS011;5184;51.376;7.148;2023-02-14T12:15:25;9.50;;;8.20;;
10277;SDS011;5184;51.376;7.148;2023-02-14T12:17:52;9.80;;;8.33;;
10277;SDS011;5184;51.376;7.148;2023-02-14T12:20:18;9.57;;;7.97;;
10277;SDS011;5184;51.376;7.148;2023-02-14T12:22:46;9.63;;;7.70;;
10277;SDS011;5184;51.376;7.148;2023-02-14T12:25:17;8.67;;;7.50;;
10277;SDS011;5184;51.376;7.148;2023-02-14T12:27:44;12.47;;;7.90;;
10277;SDS011;5184;51.376;7.148;2023-02-14T12:30:13;9.03;;;7.73;;
10277;SDS011;5184;51.376;7.148;2023-02-14T12:32:46;10.10;;;7.87;;
10277;SDS011;5184;51.376;7.148;2023-02-14T12:35:15;11.70;;;7.83;;
10277;SDS011;5184;51.376;7.148;2023-02-14T12:40:39;10.50;;;7.50;;
10277;SDS011;5184;51.376;7.148;2023-02-14T12:46:16;8.83;;;7.93;;
10277;SDS011;5184;51.376;7.148;2023-02-14T12:49:55;9.13;;;7.60;;
10277;SDS011;5184;51.376;7.148;2023-02-14T12:51:29;11.90;;;8.20;;
10277;SDS011;5184;51.376;7.148;2023-02-14T12:57:03;9.27;;;7.70;;
10277;SDS011;5184;51.376;7.148;2023-02-14T12:59:33;10.87;;;7.87;;
10277;SDS011;5184;51.376;7.148;2023-02-14T13:02:15;9.20;;;7.20;;
10277;SDS011;5184;51.376;7.148;2023-02-14T13:04:57;8.53;;;7.13;;
10277;SDS011;5184;51.376;7.148;2023-02-14T13:07:34;9.97;;;8.00;;
10277;SDS011;5184;51.376;7.148;2023-02-14T13:12:41;11.47;;;8.40;;
10277;SDS011;5184;51.376;7.148;2023-02-14T13:15:11;8.97;;;7.60;;
10277;SDS011;5184;51.376;7.148;2023-02-14T13:17:37;9.53;;;7.60;;
10277;SDS011;5184;51.376;7.148;2023-02-14T13:20:14;12.17;;;8.27;;
10277;SDS011;5184;51.376;7.148;2023-02-14T13:22:48;11.10;;;7.53;;
10277;SDS011;5184;51.376;7.148;2023-02-14T13:25:20;10.33;;;7.67;;
10277;SDS011;5184;51.376;7.148;2023-02-14T13:27:50;10.77;;;8.20;;
10277;SDS011;5184;51.376;7.148;2023-02-14T13:30:18;9.47;;;7.47;;
10277;SDS011;5184;51.376;7.148;2023-02-14T13:40:53;12.00;;;8.30;;
10277;SDS011;5184;51.376;7.148;2023-02-14T13:45:59;10.83;;;8.00;;
10277;SDS011;5184;51.376;7.148;2023-02-14T13:48:26;11.37;;;8.07;;
10277;SDS011;5184;51.376;7.148;2023-02-14T13:50:55;11.43;;;8.10;;
10277;SDS011;5184;51.376;7.148;2023-02-14T13:53:56;10.13;;;7.63;;
10277;SDS011;5184;51.376;7.148;2023-02-14T13:59:02;10.30;;;7.83;;
10277;SDS011;5184;51.376;7.148;2023-02-14T14:01:32;10.17;;;7.10;;
10277;SDS011;5184;51.376;7.148;2023-02-14T14:03:59;10.30;;;7.83;;
10277;SDS011;5184;51.376;7.148;2023-02-14T14:06:26;10.63;;;7.30;;
10277;SDS011;5184;51.376;7.148;2023-02-14T14:08:53;9.83;;;7.50;;
10277;SDS011;5184;51.376;7.148;2023-02-14T14:14:03;9.97;;;7.67;;
10277;SDS011;5184;51.376;7.148;2023-02-14T14:16:29;9.57;;;7.10;;
10277;SDS011;5184;51.376;7.148;2023-02-14T14:18:56;10.73;;;7.37;;
10277;SDS011;5184;51.376;7.148;2023-02-14T14:21:23;10.80;;;7.20;;
10277;SDS011;5184;51.376;7.148;2023-02-14T14:26:30;11.47;;;7.10;;
10277;SDS011;5184;51.376;7.148;2023-02-14T14:28:59;10.53;;;7.33;;
10277;SDS011;5184;51.376;7.148;2023-02-14T14:31:26;8.40;;;6.77;;
10277;SDS011;5184;51.376;7.148;2023-02-14T14:33:57;9.33;;;6.73;;
10277;SDS011;5184;51.376;7.148;2023-02-14T14:36:23;9.20;;;7.23;;
10277;SDS011;5184;51.376;7.148;2023-02-14T14:38:50;9.97;;;7.07;;
10277;SDS011;5184;51.376;7.148;2023-02-14T14:41:16;10.67;;;6.97;;
10277;SDS011;5184;51.376;7.148;2023-02-14T14:43:43;10.17;;;7.50;;
10277;SDS011;5184;51.376;7.148;2023-02-14T14:46:10;9.60;;;7.50;;
10277;SDS011;5184;51.376;7.148;2023-02-14T14:48:42;10.63;;;7.17;;
10277;SDS011;5184;51.376;7.148;2023-02-14T14:51:14;11.97;;;7.60;;
10277;SDS011;5184;51.376;7.148;2023-02-14T14:53:40;11.47;;;7.77;;
10277;SDS011;5184;51.376;7.148;2023-02-14T14:56:10;9.73;;;7.40;;
10277;SDS011;5184;51.376;7.148;2023-02-14T14:58:47;10.63;;;7.47;;
10277;SDS011;5184;51.376;7.148;2023-02-14T15:03:53;11.53;;;7.37;;
10277;SDS011;5184;51.376;7.148;2023-02-14T15:06:21;9.53;;;7.67;;
10277;SDS011;5184;51.376;7.148;2023-02-14T15:08:48;11.37;;;8.40;;
10277;SDS011;5184;51.376;7.148;2023-02-14T15:11:21;12.10;;;8.00;;
10277;SDS011;5184;51.376;7.148;2023-02-14T15:14:04;10.93;;;8.10;;
10277;SDS011;5184;51.376;7.148;2023-02-14T15:16:34;11.73;;;8.60;;
10277;SDS011;5184;51.376;7.148;2023-02-14T15:18:59;10.63;;;7.97;;
10277;SDS011;5184;51.376;7.148;2023-02-14T15:21:25;11.13;;;7.47;;
10277;SDS011;5184;51.376;7.148;2023-02-14T15:23:51;9.67;;;7.77;;
10277;SDS011;5184;51.376;7.148;2023-02-14T15:26:26;11.63;;;8.37;;
10277;SDS011;5184;51.376;7.148;2023-02-14T15:28:54;10.20;;;7.93;;
10277;SDS011;5184;51.376;7.148;2023-02-14T15:31:23;11.07;;;8.10;;
10277;SDS011;5184;51.376;7.148;2023-02-14T15:33:49;10.90;;;7.73;;
10277;SDS011;5184;51.376;7.148;2023-02-14T15:36:17;9.80;;;7.30;;
10277;SDS011;5184;51.376;7.148;2023-02-14T15:38:43;11.27;;;7.13;;
10277;SDS011;5184;51.376;7.148;2023-02-14T15:41:11;8.33;;;7.07;;
10277;SDS011;5184;51.376;7.148;2023-02-14T15:43:37;10.70;;;8.13;;
10277;SDS011;5184;51.376;7.148;2023-02-14T15:48:37;10.93;;;7.53;;
10277;SDS011;5184;51.376;7.148;2023-02-14T15:51:04;10.30;;;7.07;;
10277;SDS011;5184;51.376;7.148;2023-02-14T15:53:36;11.23;;;7.93;;
10277;SDS011;5184;51.376;7.148;2023-02-14T15:56:04;10.33;;;7.33;;
10277;SDS011;5184;51.376;7.148;2023-02-14T15:58:30;11.47;;;7.57;;